VABB/BOM METAR and TAF weather

Enter ICAO airport designator
Station Type Date Time Source
VABB METAR 2021/09/20 04:00 UTC NOAA

VABB 200400Z 13005KT 2200 -DZ FEW012 SCT018 FEW030CB BKN080 26/26 Q1011 TEMPO 1500 SHRA


Station Type Date Time Source
VABB Decoded METAR 2021/09/20 04:00 UTC NOAA

Bombay / Santacruz, India (VABB) 19-07N 072-51E 14M
Sep 20, 2021 - 12:00 AM EDT / 2021.09.20 0400 UTC
Wind: from the SE (130 degrees) at 6 MPH (5 KT):0
Visibility: 1 mile(s):0
Sky conditions: mostly cloudy
Weather: light drizzle; Cumulonimbus clouds observed
Temperature: 78 F (26 C)
Dew Point: 78 F (26 C)
Relative Humidity: 100%
Pressure (altimeter): 29.85 in. Hg (1011 hPa)
ob: VABB 200400Z 13005KT 2200 -DZ FEW012 SCT018 FEW030CB BKN080 26/26 Q1011 TEMPO 1500 SHRA
cycle: 4

Station Type Date Time Source
VABB TAF 2021/09/19 18:57 UTC NOAA

TAF TAF VABB 191700Z 1918/2024 18005KT 2500 -RA HZ FEW012 SCT018 BKN090
TEMPO 1918/2003 1500 TSRA SHRA SCT015 FEW030TCU/CB BKN090
BECMG 1922/1924 VRB03KT 2000 -RA HZ
BECMG 2003/2005 21007KT 3000 -DZ HZ SCT018 SCT025 BKN090
BECMG 2006/2008 25011KT 4000 HZ
BECMG 2015/2017 21006KT 3000 -DZ HZ
TEMPO 2015/2024 1500 TSRA SHRA FEW012 FEW030TCU/CB BKN090
BECMG 2022/2024 VRB03KT 2500 -DZ HZ

Example: see airport list